Latest Coastal Weather Observations for Port Hedland

IDW60701

Issued at 8:05 am WST Sunday 21 September 2014 (issued every 10 minutes, with the page automatically refreshed every 10 minutes)

About coastal observations | Map of coastal stations | Coastal observations for WA | Marine services | Other Formats
Station Details ID: 004032 Name: PORT HEDLAND AIRPORT Lat: -20.37 Lon: 118.63 Height: 6.4 m
Data from the previous 72 hours. | See also: Recent months at Port Hedland
Date/Time
WST
Temp

°C
Wind Pressure Rain
since 9am
mm
Weather Cloud Vis
km
Sea
Height
m
Swell
Dir
 
Speed
knots
Gust
knots
hPa Trend Height
m
Period
s
Dir
21/08:00am 29.3 SW 13 18 1016.2 - 0.0 - - 10 - - - -
21/07:30am 26.9 WSW 11 15 1015.8 - 0.0 - - 10 - - - -
21/07:00am 23.4 W 9 11 1015.5 - 0.0 - - 10 - - - -
21/06:30am 20.2 WSW 9 11 1015.0 - 0.0 - - 10 - - - -
21/06:00am 19.1 WSW 7 9 1014.6 - 0.0 - - 10 - - - -
21/05:30am 18.4 SW 7 9 1014.3 - 0.0 - - 10 - - - -
21/05:00am 20.6 SW 8 11 1014.1 - 0.0 - - 10 - - - -
21/04:30am 21.0 SW 8 10 1013.6 - 0.0 - - 10 - - - -
21/04:00am 20.5 SSW 7 9 1013.6 - 0.0 - - 10 - - - -
21/03:30am 22.1 S 8 11 1013.7 - 0.0 - - 10 - - - -
21/03:00am 22.7 SW 11 13 1013.5 - 0.0 - - 10 - - - -
21/02:30am 22.8 SW 8 12 1013.7 - 0.0 - - 10 - - - -
21/02:00am 22.4 WSW 8 10 1013.9 - 0.0 - - 10 - - - -
21/01:30am 22.5 WSW 8 11 1014.1 - 0.0 - - 10 - - - -
21/01:00am 22.5 W 8 10 1014.3 - 0.0 - - 10 - - - -
21/12:30am 23.1 W 10 11 1014.2 - 0.0 - - 10 - - - -
21/12:00am 23.7 WSW 10 13 1014.1 - 0.0 - - 10 - - - -
 
Date/Time
WST
Temp

°C
Wind Pressure Rain
since 9am
mm
Weather Cloud Vis
km
Sea
Height
m
Swell
Dir
 
Speed
knots
Gust
knots
hPa Trend Height
m
Period
s
Dir
20/11:30pm 24.4 SW 9 11 1014.4 - 0.0 - - 10 - - - -
20/11:00pm 24.4 WNW 9 12 1014.7 - 0.0 - - 10 - - - -
20/10:30pm 23.6 WSW 8 9 1014.7 - 0.0 - - 10 - - - -
20/10:00pm 24.3 W 9 11 1015.1 - 0.0 - - 10 - - - -
20/09:30pm 25.4 W 10 13 1015.1 - 0.0 - - 10 - - - -
20/09:00pm 25.7 W 12 15 1015.2 - 0.0 - - 10 - - - -
20/08:30pm 25.1 W 9 11 1015.2 - 0.0 - - 10 - - - -
20/08:00pm 25.4 W 9 11 1014.9 - 0.0 - - 10 - - - -
20/07:30pm 26.5 W 9 11 1014.5 - 0.0 - - 10 - - - -
20/07:00pm 27.7 W 11 14 1014.0 - 0.0 - - 10 - - - -
20/06:30pm 28.5 WNW 10 13 1013.4 - 0.0 - - 10 - - - -
20/06:00pm 29.5 WNW 11 13 1013.0 - 0.0 - - 10 - - - -
20/05:30pm 31.1 WNW 13 16 1012.7 - 0.0 - - 10 - - - -
20/05:00pm 32.5 WNW 13 16 1012.4 - 0.0 - - 10 - - - -
20/04:30pm 33.6 WNW 13 20 1012.1 - 0.0 - - 10 - - - -
20/04:00pm 34.0 WNW 12 15 1012.4 - 0.0 - - 10 - - - -
20/03:30pm 34.6 NW 12 15 1012.3 - 0.0 - - 10 - - - -
20/03:00pm 34.6 NW 13 16 1012.6 - 0.0 - - 10 - - - -
20/02:30pm 33.8 NNW 15 18 1012.8 - 0.0 - - 10 - - - -
20/02:00pm 35.7 NW 12 15 1012.7 - 0.0 - - 10 - - - -
20/01:30pm 35.3 NW 14 19 1012.9 - 0.0 - - 10 - - - -
20/01:00pm 37.6 NW 10 15 1013.0 - 0.0 - - 10 - - - -
20/12:30pm 37.3 NNW 11 14 1013.5 - 0.0 - - 10 - - - -
20/12:00pm 38.3 W 5 9 1013.8 - 0.0 - - 10 - - - -
20/11:30am 36.3 SW 6 10 1014.4 - 0.0 - - 10 - - - -
20/11:00am 36.0 SSW 5 9 1014.9 - 0.0 - - 10 - - - -
20/10:30am 35.1 W 6 9 1015.3 - 0.0 - - 10 - - - -
20/10:00am 34.4 SW 7 13 1015.5 - 0.0 - - 10 - - - -
20/09:30am 33.3 SW 7 11 1015.8 - 0.0 - - 10 - - - -
20/09:00am 31.9 SW 8 11 1015.9 - 0.0 - - 10 - - - -
20/08:30am 30.9 S 10 14 1015.7 - 0.0 - - 10 - - - -
20/08:00am 28.5 S 10 13 1015.3 - 0.0 - - 10 - - - -
20/07:30am 25.4 SSE 10 15 1015.0 - 0.0 - - 10 - - - -
20/07:00am 23.2 S 9 12 1014.3 - 0.0 - - 10 - - - -
20/06:30am 21.9 SW 8 9 1014.1 - 0.0 - - 10 - - - -
20/06:00am 19.3 SSW 9 11 1014.0 - 0.0 - - 10 - - - -
20/05:30am 19.3 S 6 7 1014.0 - 0.0 - - 10 - - - -
20/05:00am 17.9 S 5 6 1013.9 - 0.0 - - 10 - - - -
20/04:30am 18.4 S 4 5 1013.6 - 0.0 - - 10 - - - -
20/04:00am 19.3 S 7 9 1013.4 - 0.0 - - 10 - - - -
20/03:30am 19.3 S 6 7 1013.6 - 0.0 - - 10 - - - -
20/03:00am 19.8 SSW 7 8 1013.6 - 0.0 - - 10 - - - -
20/02:30am 19.4 SW 4 7 1013.9 - 0.0 - - 10 - - - -
20/02:00am 19.7 WSW 7 8 1014.0 - 0.0 - - 10 - - - -
20/01:30am 20.3 W 8 9 1014.2 - 0.0 - - 10 - - - -
20/01:00am 21.7 WNW 9 11 1014.4 - 0.0 - - 10 - - - -
20/12:30am 20.7 WNW 6 9 1014.4 - 0.0 - - 10 - - - -
20/12:00am 21.6 W 7 9 1014.6 - 0.0 - - 10 - - - -
 
Date/Time
WST
Temp

°C
Wind Pressure Rain
since 9am
mm
Weather Cloud Vis
km
Sea
Height
m
Swell
Dir
 
Speed
knots
Gust
knots
hPa Trend Height
m
Period
s
Dir
19/11:30pm 21.3 WSW 8 10 1014.9 - 0.0 - - 10 - - - -
19/11:00pm 21.5 W 9 11 1015.2 - 0.0 - - 10 - - - -
19/10:30pm 21.9 WSW 9 9 1015.3 - 0.0 - - 10 - - - -
19/10:00pm 22.0 WSW 7 9 1015.6 - 0.0 - - 10 - - - -
19/09:30pm 23.0 WSW 7 8 1015.8 - 0.0 - - 10 - - - -
19/09:00pm 23.2 WSW 7 8 1015.7 - 0.0 - - 10 - - - -
19/08:30pm 23.6 W 8 8 1015.7 - 0.0 - - 10 - - - -
19/08:00pm 23.9 W 6 6 1015.3 - 0.0 - - 10 - - - -
19/07:30pm 25.1 W 6 7 1015.0 - 0.0 - - 10 - - - -
19/07:00pm 25.2 NW 7 8 1014.6 - 0.0 - - 10 - - - -
19/06:30pm 26.4 NW 6 7 1014.1 - 0.0 - - 10 - - - -
19/06:00pm 28.7 NW 6 7 1013.7 - 0.0 - - 10 - - - -
19/05:30pm 32.3 NNW 9 11 1013.5 - 0.0 - - 10 - - - -
19/05:00pm 33.7 NNW 9 11 1013.3 - 0.0 - - 10 - - - -
19/04:30pm 34.4 NW 10 14 1013.2 - 0.0 - - 10 - - - -
19/04:00pm 35.1 NW 10 14 1013.0 - 0.0 - - 10 - - - -
19/03:30pm 35.6 NNW 10 13 1012.9 - 0.0 - - 10 - - - -
19/03:00pm 35.7 NNW 9 13 1013.0 - 0.0 - - 10 - - - -
19/02:30pm 35.6 NNW 10 12 1013.2 - 0.0 - - 10 - - - -
19/02:00pm 35.8 NNW 11 13 1013.4 - 0.0 - - 10 - - - -
19/01:30pm 36.5 NW 10 13 1013.6 - 0.0 - - 10 - - - -
19/01:00pm 36.7 NNW 10 14 1014.1 - 0.0 - - 10 - - - -
19/12:30pm 36.0 NNW 9 15 1014.2 - 0.0 - - 10 - - - -
19/12:00pm 35.2 N 6 14 1014.6 - 0.0 - - 10 - - - -
19/11:30am 35.8 N 5 8 1015.0 - 0.0 - - 10 - - - -
19/11:00am 35.6 WSW 11 16 1015.5 - 0.0 - - 10 - - - -
19/10:30am 34.5 WNW 5 8 1015.9 - 0.0 - - 10 - - - -
19/10:00am 34.2 S 7 10 1016.2 - 0.0 - - 10 - - - -
19/09:30am 32.9 S 5 8 1016.5 - 0.0 - - 10 - - - -
19/09:00am 30.6 S 5 8 1016.6 - 0.0 - - 10 - - - -
19/08:30am 27.7 S 4 5 1016.8 - 0.0 - - 10 - - - -
19/08:00am 24.7 S 4 5 1016.6 - 0.0 - - 10 - - - -
19/07:30am 21.6 CALM 0 0 1016.5 - 0.0 - - 10 - - - -
19/07:00am 18.8 SSW 5 6 1015.9 - 0.0 - - 10 - - - -
19/06:30am 16.2 WSW 7 8 1015.5 - 0.0 - - 10 - - - -
19/06:00am 16.2 SW 3 4 1015.2 - 0.0 - - 10 - - - -
19/05:30am 16.9 SSW 6 7 1014.8 - 0.0 - - 10 - - - -
19/05:00am 16.4 SSW 4 5 1014.5 - 0.0 - - 10 - - - -
19/04:30am 16.0 SSW 5 6 1014.2 - 0.0 - - 10 - - - -
19/04:00am 17.1 S 4 5 1014.1 - 0.0 - - 10 - - - -
19/03:30am 16.1 CALM 0 0 1014.1 - 0.0 - - 10 - - - -
19/03:00am 17.1 S 4 5 1014.3 - 0.0 - - 10 - - - -
19/02:30am 17.7 S 3 4 1014.4 - 0.0 - - 10 - - - -
19/02:00am 17.7 SSE 3 4 1014.5 - 0.0 - - 10 - - - -
19/01:30am 18.6 S 3 4 1014.5 - 0.0 - - 10 - - - -
19/01:00am 19.0 SW 6 7 1014.7 - 0.0 - - 10 - - - -
19/12:30am 19.0 WSW 6 7 1014.8 - 0.0 - - 10 - - - -
19/12:00am 19.1 WSW 5 6 1015.0 - 0.0 - - 10 - - - -
 
Date/Time
WST
Temp

°C
Wind Pressure Rain
since 9am
mm
Weather Cloud Vis
km
Sea
Height
m
Swell
Dir
 
Speed
knots
Gust
knots
hPa Trend Height
m
Period
s
Dir
18/11:30pm 19.4 W 6 6 1015.3 - 0.0 - - 10 - - - -
18/11:00pm 20.1 W 6 7 1015.5 - 0.0 - - 10 - - - -
18/10:30pm 19.9 W 7 8 1015.6 - 0.0 - - 10 - - - -
18/10:00pm 20.2 W 7 8 1015.7 - 0.0 - - 10 - - - -
18/09:30pm 20.5 WSW 7 8 1015.7 - 0.0 - - 10 - - - -
18/09:00pm 21.7 W 7 9 1015.6 - 0.0 - - 10 - - - -
18/08:30pm 21.9 WNW 7 8 1015.4 - 0.0 - - 10 - - - -
18/08:00pm 22.9 W 7 8 1015.2 - 0.0 - - 10 - - - -
18/07:30pm 23.9 WNW 8 11 1014.9 - 0.0 - - 10 - - - -
18/07:00pm 24.7 W 8 11 1014.4 - 0.0 - - 10 - - - -
18/06:30pm 25.2 WNW 8 10 1014.1 - 0.0 - - 10 - - - -
18/06:00pm 26.6 WNW 9 11 1013.7 - 0.0 - - 10 - - - -
18/05:30pm 28.6 WNW 12 15 1013.4 - 0.0 - - 10 - - - -
18/05:00pm 29.2 NW 13 16 1013.2 - 0.0 - - 10 - - - -
18/04:30pm 30.4 NW 14 18 1013.0 - 0.0 - - 10 - - - -
18/04:00pm 32.2 NW 14 17 1012.8 - 0.0 - - 10 - - - -
18/03:30pm 33.0 WNW 14 17 1012.8 - 0.0 - - 10 - - - -
18/03:00pm 33.3 WNW 14 17 1012.9 R 0.0 Fine Clear 30 - - - -
18/02:30pm 33.3 NW 14 17 1013.0 - 0.0 - - 10 - - - -
18/02:00pm 32.5 NW 12 16 1013.2 - 0.0 - - 10 - - - -
18/01:30pm 30.7 NNW 16 19 1013.7 - 0.0 - - 10 - - - -
18/01:00pm 35.9 NW 11 13 1013.9 - 0.0 - - 10 - - - -
18/12:30pm 36.6 NNW 11 14 1014.2 - 0.0 - - 10 - - - -
18/12:00pm 35.9 NW 11 14 1014.5 F 0.0 Fine Clear 30 - - - -
18/11:30am 35.5 NW 10 14 1015.0 - 0.0 - - 10 - - - -
18/11:00am 34.6 WSW 7 11 1015.5 - 0.0 - - 10 - - - -
18/10:30am 32.5 W 7 11 1015.9 - 0.0 - - 10 - - - -
18/10:00am 32.1 SW 7 10 1016.2 - 0.0 - - 10 - - - -
18/09:30am 31.0 W 7 11 1016.3 - 0.0 - - 10 - - - -
18/09:00am 28.6 W 7 9 1016.5 R 0.4 Fine Clear 30 - - - -
18/08:30am 26.9 W 7 10 1016.5 - 0.2 - - 10 - - - -

Other Formats:

Comma delimited format used in spreadsheet applications
http://www.bom.gov.au/fwo/IDW60701/IDW60701.94312.axf

JavaScript Object Notation format (JSON) in row-major order
http://www.bom.gov.au/fwo/IDW60701/IDW60701.94312.json